Aeroporto :
LOGIN :

Iscrizione | Disclaimer

   EN    FR    IT 

 










Sommario :    VFR   VFR Marginale   IFR   IFR Intensivo   IFR Molto Intensivo
Visibilità : 
Base nubi : 
>= 8 km
>= 3000ft
5 / 8 km
1000 / 3000 ft
1500m / 5 km
500 / 1000 ft
800 / 1500m
200 / 500 ft
< 800m
< 200 ft
Simboli :   Temporali  Nebbia  Neve Forte  Precipitazioni Forti  Vento > 20 kt
SIGMETs :   Varie  Temporali  Ghiacco  Turbolenza  Onda orograficha  Ceneri Vulcaniche






- Altitudine del aeroporto : 82 ft
- Codice IATA : QIE


LFMI - Istres

ULTIMO METAR :
  • 151800Z AUTO 13012KT 9999 FEW018 OVC041 14/11 Q1013 NOSIG

METARs OBSOLETI :
  • 151730Z AUTO 13011KT 9999 OVC041 14/11 Q1013 NOSIG
  • 151700Z AUTO 13011KT 9999 OVC038 14/11 Q1013 NOSIG
  • 151630Z AUTO 13010KT 9999 FEW020 OVC036 14/11 Q1012 NOSIG
  • 151600Z AUTO 13011KT 9999 FEW021 OVC034 14/11 Q1012 NOSIG
  • 151530Z AUTO 13012KT 9999 FEW023 BKN034 14/11 Q1012 NOSIG

TAF TAF LFMI
Valido dal 15 a 15 ore il 16 a 15 ore UTC


151400Z 1515/1615 14015KT 9999 FEW025 BKN030
BECMG 1603/1605 14017G27KT NSC



MetMap, La meteo Aeronautica in un colpo d'occhio ! - Copyright ORBIFLY Dicembre 2007 - Disclaimer

ORBIFLY MET'MAP TEAM :

Programmazione e sviluppo : Alexandra Zaïnal
Concezione : Baudouin d'Aumeries
Aiuto per la programmazione : Marc-Olivier Méhu
Supporto tecnico e logistico : Manuel Goepfert
Aiuto per la traduzione : Arnaldo La Scala

Contatto : metmap@orbifly.com




FONTI E CREDITI :

   NOAA